Time,TemperatureF,DewpointF,PressureIn,WindDirection,WindDirectionDegrees,WindSpeedMPH,WindSpeedGustMPH,Humidity,HourlyPrecipIn,Conditions,Clouds,dailyrainin,SoftwareType,DateUTC
2013-07-06 00:12:00,62.1,49.4,29.81,ESE,112,8.3,-999.0,63,-99.99,,,0.00,Acu-Link.com,2013-07-06 06:12:00,
2013-07-06 00:37:00,61.9,48.7,29.81,ENE,67,5.3,-999.0,62,-99.99,,,0.00,Acu-Link.com,2013-07-06 06:37:00,
2013-07-06 02:59:00,54.7,48.7,29.86,SW,225,1.1,-999.0,80,-99.99,,,0.00,Acu-Link.com,2013-07-06 08:59:00,
2013-07-06 03:14:00,54.3,48.6,29.86,NE,45,4.2,-999.0,81,-99.99,,,0.00,Acu-Link.com,2013-07-06 09:14:00,
2013-07-06 10:18:00,73.9,53.0,29.90,East,90,2.7,-999.0,48,-99.99,,,0.00,Acu-Link.com,2013-07-06 16:18:00,
2013-07-06 11:29:00,76.6,52.4,29.89,West,270,3.2,-999.0,43,-99.99,,,0.00,Acu-Link.com,2013-07-06 17:29:00,
2013-07-06 11:45:00,76.5,54.8,29.88,South,180,3.2,-999.0,47,-99.99,,,0.00,Acu-Link.com,2013-07-06 17:45:00,
2013-07-06 12:00:00,76.6,54.8,29.88,SW,225,1.7,-999.0,47,-99.99,,,0.00,Acu-Link.com,2013-07-06 18:00:00,
2013-07-06 12:46:00,81.7,52.9,29.86,SE,135,2.7,-999.0,37,-99.99,,,0.00,Acu-Link.com,2013-07-06 18:46:00,
2013-07-06 13:16:00,80.2,53.7,29.85,East,90,3.2,-999.0,40,-99.99,,,0.00,Acu-Link.com,2013-07-06 19:16:00,
2013-07-06 13:31:00,81.7,52.9,29.86,NNW,337,4.2,-999.0,37,-99.99,,,0.00,Acu-Link.com,2013-07-06 19:31:00,
2013-07-06 14:02:00,82.9,53.2,29.83,NE,45,6.8,-999.0,36,-99.99,,,0.00,Acu-Link.com,2013-07-06 20:02:00,
2013-07-06 14:17:00,78.4,51.4,29.83,NNE,22,5.3,-999.0,39,-99.99,,,0.00,Acu-Link.com,2013-07-06 20:17:00,
2013-07-06 14:32:00,77.0,52.1,29.83,NNW,337,5.3,-999.0,42,-99.99,,,0.00,Acu-Link.com,2013-07-06 20:32:00,
2013-07-06 14:47:00,80.8,52.8,29.83,East,90,4.2,-999.0,38,-99.99,,,0.00,Acu-Link.com,2013-07-06 20:47:00,
2013-07-06 15:33:00,78.1,51.1,29.81,NE,45,4.2,-999.0,39,-99.99,,,0.00,Acu-Link.com,2013-07-06 21:33:00,
2013-07-06 15:48:00,77.9,50.2,29.77,NE,45,6.3,-999.0,38,-99.99,,,0.00,Acu-Link.com,2013-07-06 21:48:00,
2013-07-06 16:03:00,81.1,50.8,29.78,NNE,22,8.3,-999.0,35,-99.99,,,0.00,Acu-Link.com,2013-07-06 22:03:00,
2013-07-06 16:19:00,78.6,50.1,29.77,East,90,4.2,-999.0,37,-99.99,,,0.00,Acu-Link.com,2013-07-06 22:19:00,
2013-07-06 17:04:00,80.6,50.4,29.75,NNW,337,8.9,-999.0,35,-99.99,,,0.00,Acu-Link.com,2013-07-06 23:04:00,
2013-07-06 17:19:00,81.5,51.2,29.75,North,0,10.9,-999.0,35,-99.99,,,0.00,Acu-Link.com,2013-07-06 23:19:00,
2013-07-06 18:05:00,80.4,51.0,29.75,NW,315,6.8,-999.0,36,-99.99,,,0.00,Acu-Link.com,2013-07-07 00:05:00,
2013-07-06 18:35:00,78.6,51.6,29.75,North,0,6.8,-999.0,39,-99.99,,,0.00,Acu-Link.com,2013-07-07 00:35:00,
2013-07-06 20:07:00,74.1,49.5,29.79,NNE,22,3.7,-999.0,42,-99.99,,,0.00,Acu-Link.com,2013-07-07 02:07:00,
2013-07-06 20:22:00,71.8,53.2,29.79,SW,225,1.1,-999.0,52,-99.99,,,0.00,Acu-Link.com,2013-07-07 02:22:00,
2013-07-06 20:37:00,70.7,50.6,29.81,South,180,0.0,-999.0,49,-99.99,,,0.00,Acu-Link.com,2013-07-07 02:37:00,
2013-07-06 20:52:00,70.0,51.0,29.80,West,270,2.2,-999.0,51,-99.99,,,0.00,Acu-Link.com,2013-07-07 02:52:00,
2013-07-06 21:08:00,68.9,51.6,29.81,NNW,337,2.2,-999.0,54,-99.99,,,0.00,Acu-Link.com,2013-07-07 03:08:00,
2013-07-06 21:23:00,67.8,51.5,29.82,NNE,22,3.2,-999.0,56,-99.99,,,0.00,Acu-Link.com,2013-07-07 03:23:00,
2013-07-06 21:53:00,68.5,50.2,29.86,ESE,112,7.8,-999.0,52,-99.99,,,0.00,Acu-Link.com,2013-07-07 03:53:00,
2013-07-06 22:08:00,68.5,50.7,29.86,East,90,10.4,-999.0,53,-99.99,,,0.00,Acu-Link.com,2013-07-07 04:08:00,
2013-07-06 22:23:00,68.9,50.5,29.87,ENE,67,9.4,-999.0,52,-99.99,,,0.00,Acu-Link.com,2013-07-07 04:23:00,
2013-07-06 22:39:00,66.2,52.3,29.87,ESE,112,11.4,-999.0,61,-99.99,,,0.00,Acu-Link.com,2013-07-07 04:39:00,
2013-07-06 22:54:00,66.6,51.4,29.87,SE,135,11.9,-999.0,58,-99.99,,,0.00,Acu-Link.com,2013-07-07 04:54:00,
2013-07-06 23:09:00,66.6,50.9,29.89,ESE,112,11.9,-999.0,57,-99.99,,,0.00,Acu-Link.com,2013-07-07 05:09:00,
2013-07-06 23:24:00,66.4,50.2,29.88,SE,135,6.8,-999.0,56,-99.99,,,0.00,Acu-Link.com,2013-07-07 05:24:00,
2013-07-06 23:39:00,66.7,50.5,29.88,South,180,6.8,-999.0,56,-99.99,,,0.00,Acu-Link.com,2013-07-07 05:39:00,
2013-07-06 23:54:00,67.1,50.9,29.90,SSE,157,9.9,-999.0,56,-99.99,,,0.00,Acu-Link.com,2013-07-07 05:54:00,